Time;durP1;ratioP1;P1;durP2;ratioP2;P2;SDS_P1;SDS_P2;PMS_P1;PMS_P2;Temp;Humidity;BMP_temperature;BMP_pressure;BME280_temperature;BME280_humidity;BME280_pressure;Samples;Min_cycle;Max_cycle;Signal;HPM_P1;HPM_P2
2022/08/10 00:02:24;;;;;;;2.30;2.20;;;24.20;41.50;;;;;;4777770;29;20241;-74
2022/08/10 00:04:50;;;;;;;2.00;1.90;;;24.20;41.50;;;;;;4780586;29;21272;-75
2022/08/10 00:07:17;;;;;;;2.17;2.07;;;24.20;41.40;;;;;;4786049;29;20516;-74
2022/08/10 00:09:42;;;;;;;1.87;1.77;;;24.20;41.50;;;;;;4776128;29;20239;-74
2022/08/10 00:12:08;;;;;;;1.83;1.73;;;24.20;41.50;;;;;;4780347;29;20478;-74
2022/08/10 00:14:35;;;;;;;2.23;2.13;;;24.20;41.50;;;;;;4784709;29;20582;-74
2022/08/10 00:17:01;;;;;;;2.20;2.10;;;24.20;41.50;;;;;;4776971;29;20300;-74
2022/08/10 00:19:27;;;;;;;1.87;1.77;;;24.20;41.50;;;;;;4783494;29;20494;-74
2022/08/10 00:21:53;;;;;;;2.10;2.00;;;24.20;41.50;;;;;;4782490;29;20487;-73
2022/08/10 00:24:19;;;;;;;2.00;1.90;;;24.20;41.50;;;;;;4778755;29;20718;-74
2022/08/10 00:26:45;;;;;;;1.80;1.70;;;24.20;41.60;;;;;;4781204;29;20462;-74
2022/08/10 00:29:12;;;;;;;2.10;2.00;;;24.20;41.50;;;;;;4773855;29;20576;-74
2022/08/10 00:31:37;;;;;;;1.97;1.87;;;24.20;41.50;;;;;;4777736;29;20245;-74
2022/08/10 00:34:03;;;;;;;2.00;1.90;;;24.20;41.50;;;;;;4782278;29;20476;-75
2022/08/10 00:36:29;;;;;;;1.80;1.70;;;24.20;41.50;;;;;;4783550;29;20226;-74
2022/08/10 00:38:54;;;;;;;1.83;1.73;;;24.20;41.50;;;;;;4785698;29;20232;-74
2022/08/10 00:41:21;;;;;;;1.80;1.70;;;24.20;41.50;;;;;;4777692;29;20232;-74
2022/08/10 00:43:48;;;;;;;2.23;2.13;;;24.20;41.50;;;;;;4777976;29;20242;-74
2022/08/10 00:46:14;;;;;;;2.40;2.30;;;24.20;41.50;;;;;;4786708;29;20483;-74
2022/08/10 00:48:39;;;;;;;2.10;2.00;;;24.20;41.50;;;;;;4784629;29;20456;-74
2022/08/10 00:51:06;;;;;;;1.80;1.70;;;24.20;41.50;;;;;;4782688;29;20231;-74
2022/08/10 00:53:32;;;;;;;2.23;2.13;;;24.20;41.60;;;;;;4780606;29;20230;-74
2022/08/10 00:55:58;;;;;;;2.00;1.90;;;24.20;41.50;;;;;;4783380;29;20455;-74
2022/08/10 00:58:24;;;;;;;1.60;1.50;;;24.20;41.60;;;;;;4782890;29;20502;-75
2022/08/10 01:00:50;;;;;;;1.60;1.50;;;24.20;41.50;;;;;;4780348;29;20465;-74
2022/08/10 01:03:16;;;;;;;1.70;1.60;;;24.20;41.50;;;;;;4780060;29;20222;-74
2022/08/10 01:05:58;;;;;;;1.90;1.80;;;24.20;41.50;;;;;;4781711;29;20502;-74
2022/08/10 01:08:41;;;;;;;1.93;1.83;;;24.20;41.50;;;;;;4783040;29;20472;-74
2022/08/10 01:11:20;;;;;;;1.97;1.87;;;24.20;41.50;;;;;;4791243;29;20474;-74
2022/08/10 01:13:58;;;;;;;2.07;1.97;;;24.20;41.60;;;;;;4787812;29;20467;-74
2022/08/10 01:16:35;;;;;;;2.20;2.00;;;24.20;41.60;;;;;;4786584;29;20539;-74
2022/08/10 01:19:41;;;;;;;2.20;2.10;;;24.20;41.60;;;;;;4785609;29;20523;-74
2022/08/10 01:22:42;;;;;;;1.90;1.80;;;24.20;41.60;;;;;;4802630;29;20521;-74
2022/08/10 01:25:13;;;;;;;2.23;1.70;;;24.20;41.60;;;;;;4783566;24;20488;-83
2022/08/10 01:27:53;;;;;;;2.00;1.90;;;24.20;41.60;;;;;;4792480;29;20481;-82
2022/08/10 01:30:19;;;;;;;1.63;1.53;;;24.20;41.60;;;;;;4805738;29;20460;-83
2022/08/10 01:32:56;;;;;;;2.00;1.90;;;24.20;41.60;;;;;;4807076;29;20490;-83
2022/08/10 01:36:01;;;;;;;1.70;1.60;;;24.20;41.60;;;;;;4805841;29;20466;-83
2022/08/10 01:38:33;;;;;;;1.70;1.60;;;24.20;41.60;;;;;;4734199;30;20465;-83
2022/08/10 01:41:24;;;;;;;2.00;1.90;;;24.20;41.60;;;;;;4797971;29;20477;-82
2022/08/10 01:44:12;;;;;;;1.80;1.70;;;24.20;41.60;;;;;;4791949;29;20468;-84
2022/08/10 01:46:43;;;;;;;1.80;1.70;;;24.20;41.60;;;;;;4792082;29;20515;-83
2022/08/10 01:49:11;;;;;;;2.03;1.83;;;24.20;41.60;;;;;;4806527;29;20813;-83
2022/08/10 01:51:49;;;;;;;1.57;1.47;;;24.20;41.70;;;;;;4804171;29;20977;-83
2022/08/10 01:54:19;;;;;;;1.90;1.80;;;24.20;41.70;;;;;;4808280;29;20474;-83
2022/08/10 01:56:47;;;;;;;1.87;1.63;;;24.20;41.70;;;;;;4806465;29;20465;-83
2022/08/10 01:59:19;;;;;;;1.70;1.60;;;24.20;41.70;;;;;;4809373;29;20494;-83
2022/08/10 02:01:49;;;;;;;1.90;1.80;;;24.20;41.70;;;;;;4807420;29;20468;-83
2022/08/10 02:04:17;;;;;;;2.10;1.97;;;24.20;41.70;;;;;;4792088;29;20499;-82
2022/08/10 02:06:46;;;;;;;1.77;1.67;;;24.20;41.70;;;;;;4807339;29;20996;-83
2022/08/10 02:09:15;;;;;;;1.97;1.87;;;24.20;41.70;;;;;;4793136;29;20454;-82
2022/08/10 02:11:43;;;;;;;1.70;1.60;;;24.20;41.70;;;;;;4814987;29;20453;-82
2022/08/10 02:14:12;;;;;;;2.00;1.90;;;24.20;41.70;;;;;;4800251;29;20490;-83
2022/08/10 02:16:41;;;;;;;2.07;1.97;;;24.20;41.70;;;;;;4805264;29;20475;-83
2022/08/10 02:19:08;;;;;;;2.00;1.90;;;24.20;41.70;;;;;;4794810;29;20529;-83
2022/08/10 02:21:34;;;;;;;1.80;1.70;;;24.20;41.70;;;;;;4803707;29;20462;-83
2022/08/10 02:24:01;;;;;;;1.83;1.73;;;24.20;41.70;;;;;;4784439;29;20472;-83
2022/08/10 02:26:28;;;;;;;1.80;1.70;;;24.20;41.70;;;;;;4809094;29;20502;-83
2022/08/10 02:28:54;;;;;;;1.70;1.60;;;24.20;41.70;;;;;;4806429;29;20581;-83
2022/08/10 02:31:22;;;;;;;1.73;1.63;;;24.20;41.70;;;;;;4792781;29;20581;-83
2022/08/10 02:33:50;;;;;;;1.53;1.43;;;24.20;41.70;;;;;;4810113;29;20236;-84
2022/08/10 02:36:19;;;;;;;1.67;1.57;;;24.20;41.70;;;;;;4804439;29;20471;-83
2022/08/10 02:38:50;;;;;;;1.90;1.80;;;24.20;41.70;;;;;;4811411;29;20737;-84
2022/08/10 02:41:41;;;;;;;2.30;2.20;;;24.20;42.50;;;;;;4808663;29;21049;-83
2022/08/10 02:44:28;;;;;;;1.70;1.60;;;24.20;41.70;;;;;;4786178;29;20584;-83
2022/08/10 02:47:03;;;;;;;1.70;1.60;;;24.20;41.70;;;;;;4808357;29;20458;-83
2022/08/10 02:49:37;;;;;;;1.70;1.60;;;24.20;41.70;;;;;;4808679;29;20475;-83
2022/08/10 02:52:16;;;;;;;1.60;1.50;;;24.20;41.70;;;;;;4805657;29;20478;-83
2022/08/10 02:54:50;;;;;;;2.03;1.93;;;24.20;41.70;;;;;;4795410;29;20509;-83
2022/08/10 02:57:21;;;;;;;1.87;1.77;;;24.20;41.70;;;;;;4808435;29;20479;-83
2022/08/10 02:59:49;;;;;;;1.70;1.60;;;24.20;41.70;;;;;;4807832;29;20475;-83
2022/08/10 03:02:34;;;;;;;1.77;1.67;;;24.20;41.70;;;;;;4803665;29;20521;-83
2022/08/10 03:05:05;;;;;;;1.90;1.80;;;24.20;41.70;;;;;;4807251;29;20466;-83
2022/08/10 03:07:36;;;;;;;1.80;1.70;;;24.20;41.70;;;;;;4792701;29;20494;-83
2022/08/10 03:10:04;;;;;;;1.80;1.70;;;24.20;41.80;;;;;;4803358;29;20621;-83
2022/08/10 03:12:31;;;;;;;1.70;1.60;;;24.20;41.70;;;;;;4807750;29;20469;-83
2022/08/10 03:14:58;;;;;;;1.80;1.70;;;24.20;41.70;;;;;;4790412;29;20471;-83
2022/08/10 03:17:25;;;;;;;1.80;1.70;;;24.20;41.80;;;;;;4803789;29;20485;-83
2022/08/10 03:19:51;;;;;;;2.07;1.97;;;24.20;41.80;;;;;;4806434;29;20621;-83
2022/08/10 03:22:18;;;;;;;1.90;1.80;;;24.20;41.80;;;;;;4811144;29;20474;-83
2022/08/10 03:24:44;;;;;;;1.70;1.60;;;24.20;41.80;;;;;;4813183;29;20549;-83
2022/08/10 03:27:12;;;;;;;2.30;2.10;;;24.20;41.80;;;;;;4796798;29;20594;-83
2022/08/10 03:29:39;;;;;;;1.90;1.80;;;24.20;41.80;;;;;;4812009;29;20465;-83
2022/08/10 03:32:06;;;;;;;2.07;1.97;;;24.20;41.80;;;;;;4812289;29;20486;-83
2022/08/10 03:34:33;;;;;;;1.63;1.53;;;24.20;41.80;;;;;;4813312;29;20480;-83
2022/08/10 03:36:58;;;;;;;1.87;1.77;;;24.20;41.80;;;;;;4815551;29;20574;-83
2022/08/10 03:39:24;;;;;;;1.80;1.70;;;24.20;41.80;;;;;;4797624;29;20487;-83
2022/08/10 03:41:54;;;;;;;1.47;1.37;;;24.20;41.80;;;;;;4811059;29;20678;-83
2022/08/10 03:44:24;;;;;;;2.10;2.00;;;24.20;41.80;;;;;;4807649;29;20241;-82
2022/08/10 03:46:52;;;;;;;1.83;1.73;;;24.20;41.80;;;;;;4795790;29;20480;-83
2022/08/10 03:49:19;;;;;;;2.00;1.90;;;24.20;41.80;;;;;;4812820;29;20561;-83
2022/08/10 03:51:48;;;;;;;2.10;2.00;;;24.20;41.80;;;;;;4811058;29;20473;-83
2022/08/10 03:54:18;;;;;;;1.73;1.63;;;24.20;41.80;;;;;;4810944;29;20870;-83
2022/08/10 03:56:44;;;;;;;1.80;1.70;;;24.20;42.60;;;;;;4809734;29;20477;-83
2022/08/10 03:59:15;;;;;;;1.80;1.70;;;24.20;41.80;;;;;;4810905;29;20473;-83
2022/08/10 04:01:44;;;;;;;1.83;1.73;;;24.20;41.80;;;;;;4811530;29;20538;-83
2022/08/10 04:04:11;;;;;;;1.80;1.70;;;24.20;41.80;;;;;;4793357;29;20524;-83
2022/08/10 04:06:37;;;;;;;1.80;1.70;;;24.20;41.80;;;;;;4810355;29;20590;-83
2022/08/10 04:09:03;;;;;;;2.03;1.93;;;24.20;41.80;;;;;;4812845;29;20462;-83
2022/08/10 04:11:29;;;;;;;2.07;1.97;;;24.20;41.80;;;;;;4812659;29;21293;-82
2022/08/10 04:13:54;;;;;;;1.50;1.40;;;24.20;41.70;;;;;;4812183;29;20585;-84
2022/08/10 04:16:20;;;;;;;1.80;1.70;;;24.20;41.80;;;;;;4797715;29;20238;-82
2022/08/10 04:18:46;;;;;;;1.77;1.67;;;24.20;41.80;;;;;;4812416;29;20318;-82
2022/08/10 04:21:23;;;;;;;2.80;1.80;;;24.20;41.80;;;;;;4814583;29;20544;-81
2022/08/10 04:23:51;;;;;;;1.70;1.60;;;24.20;41.70;;;;;;4812995;29;20236;-82
2022/08/10 04:26:17;;;;;;;1.70;1.60;;;24.20;41.70;;;;;;4814511;29;20490;-82
2022/08/10 04:28:43;;;;;;;2.13;2.03;;;24.20;41.60;;;;;;4808522;29;20504;-83
2022/08/10 04:31:13;;;;;;;1.90;1.80;;;24.30;41.70;;;;;;4793495;29;20866;-81
2022/08/10 04:33:41;;;;;;;2.00;1.77;;;24.30;41.60;;;;;;4807953;29;20476;-83
2022/08/10 04:36:10;;;;;;;1.80;1.70;;;24.30;41.50;;;;;;4802917;29;21085;-84
2022/08/10 04:38:36;;;;;;;1.87;1.77;;;24.30;41.50;;;;;;4805246;29;20963;-81
2022/08/10 04:41:02;;;;;;;1.97;1.63;;;24.30;41.40;;;;;;4805832;29;20474;-82
2022/08/10 04:43:28;;;;;;;1.93;1.83;;;24.30;41.40;;;;;;4781762;29;20477;-83
2022/08/10 04:45:53;;;;;;;1.70;1.60;;;24.30;41.30;;;;;;4801904;29;20490;-83
2022/08/10 04:48:21;;;;;;;2.40;2.30;;;24.30;41.30;;;;;;4788763;29;20318;-83
2022/08/10 04:50:47;;;;;;;1.93;1.80;;;24.30;41.30;;;;;;4804378;29;20277;-83
2022/08/10 04:53:12;;;;;;;2.00;1.90;;;24.30;41.40;;;;;;4786723;29;21033;-83
2022/08/10 04:55:38;;;;;;;2.03;1.93;;;24.30;41.30;;;;;;4789033;29;21487;-83
2022/08/10 04:58:04;;;;;;;2.03;1.93;;;24.30;41.20;;;;;;4804652;29;20234;-83
2022/08/10 05:00:29;;;;;;;1.83;1.73;;;24.30;41.30;;;;;;4800314;29;20237;-83
2022/08/10 05:02:55;;;;;;;1.93;1.83;;;24.30;41.20;;;;;;4805548;29;20697;-84
2022/08/10 05:05:20;;;;;;;2.00;1.90;;;24.30;41.20;;;;;;4802610;29;20613;-83
2022/08/10 05:07:46;;;;;;;2.93;2.20;;;24.30;41.20;;;;;;4800922;29;20234;-83
2022/08/10 05:10:12;;;;;;;2.53;2.10;;;24.30;41.20;;;;;;4801802;29;20234;-83
2022/08/10 05:12:38;;;;;;;1.80;1.63;;;24.30;41.10;;;;;;4807099;29;20321;-83
2022/08/10 05:15:05;;;;;;;1.87;1.77;;;24.30;41.10;;;;;;4791846;29;21220;-84
2022/08/10 05:17:30;;;;;;;2.00;1.90;;;24.30;41.10;;;;;;4805034;29;25689;-84
2022/08/10 05:19:56;;;;;;;1.87;1.77;;;24.30;41.10;;;;;;4808138;29;20469;-85
2022/08/10 05:22:21;;;;;;;1.63;1.53;;;24.30;41.10;;;;;;4790305;29;21232;-84
2022/08/10 05:24:47;;;;;;;2.23;1.60;;;24.30;41.10;;;;;;4787736;29;20348;-84
2022/08/10 05:27:12;;;;;;;2.23;2.13;;;24.30;41.20;;;;;;4790829;29;20300;-84
2022/08/10 05:29:38;;;;;;;2.40;1.97;;;24.40;41.30;;;;;;4808644;29;20241;-84
2022/08/10 05:32:04;;;;;;;1.80;1.70;;;24.40;41.30;;;;;;4810896;29;20234;-83
2022/08/10 05:34:29;;;;;;;1.90;1.80;;;24.40;41.30;;;;;;4805485;29;20233;-84
2022/08/10 05:36:56;;;;;;;3.00;1.73;;;24.40;41.30;;;;;;4788311;29;20226;-84
2022/08/10 05:39:22;;;;;;;2.10;1.90;;;24.40;41.30;;;;;;4804298;29;20305;-84
2022/08/10 05:41:53;;;;;;;2.03;1.90;;;24.40;41.30;;;;;;4809264;29;20927;-84
2022/08/10 05:44:21;;;;;;;1.80;1.70;;;24.40;41.30;;;;;;4799688;29;20510;-84
2022/08/10 05:46:49;;;;;;;1.90;1.80;;;24.40;41.30;;;;;;4811006;29;20454;-84
2022/08/10 05:49:15;;;;;;;1.97;1.87;;;24.40;41.30;;;;;;4789509;29;20459;-84
2022/08/10 05:51:41;;;;;;;1.80;1.70;;;24.40;41.40;;;;;;4807316;29;20466;-84
2022/08/10 05:54:13;;;;;;;2.53;1.87;;;24.40;41.40;;;;;;4811710;29;20248;-84
2022/08/10 05:56:41;;;;;;;1.90;1.80;;;24.40;41.30;;;;;;4810087;29;20529;-85
2022/08/10 05:59:06;;;;;;;1.93;1.77;;;24.40;41.30;;;;;;4807806;29;20459;-85
2022/08/10 06:01:35;;;;;;;2.20;2.10;;;24.40;41.30;;;;;;4795319;29;20458;-85
2022/08/10 06:04:02;;;;;;;1.90;1.80;;;24.40;41.30;;;;;;4811748;29;21213;-84
2022/08/10 06:06:31;;;;;;;2.10;1.90;;;24.40;41.30;;;;;;4809987;29;20503;-81
2022/08/10 06:08:58;;;;;;;2.00;1.80;;;24.40;41.50;;;;;;4790033;29;21186;-79
2022/08/10 06:11:27;;;;;;;2.00;1.90;;;24.40;41.30;;;;;;4803751;29;20557;-80
2022/08/10 06:16:39;;;;;;;1.90;1.80;;;24.40;41.30;;;;;;4803478;29;22151;-80
2022/08/10 06:19:06;;;;;;;2.17;2.07;;;24.40;41.20;;;;;;4801006;29;20470;-80
2022/08/10 06:21:33;;;;;;;1.90;1.80;;;24.40;41.30;;;;;;4792831;29;20501;-81
2022/08/10 06:24:00;;;;;;;2.40;2.20;;;24.40;41.20;;;;;;4791934;29;20469;-80
2022/08/10 06:26:26;;;;;;;2.27;2.07;;;24.40;41.20;;;;;;4799488;29;20549;-82
2022/08/10 06:28:59;;;;;;;2.10;2.00;;;24.40;41.20;;;;;;4796144;29;22860;-82
2022/08/10 06:31:26;;;;;;;1.80;1.70;;;24.40;41.20;;;;;;4785622;29;20814;-81
2022/08/10 06:33:52;;;;;;;2.60;1.80;;;24.40;41.10;;;;;;4796083;29;21085;-83
2022/08/10 06:36:21;;;;;;;2.03;1.80;;;24.40;41.10;;;;;;4804497;29;20504;-81
2022/08/10 06:38:49;;;;;;;2.03;1.93;;;24.40;41.10;;;;;;4806313;29;20469;-83
2022/08/10 06:41:24;;;;;;;1.70;1.60;;;24.40;41.10;;;;;;4809471;29;20497;-82
2022/08/10 06:44:02;;;;;;;2.20;2.10;;;24.40;41.10;;;;;;4802384;29;20466;-82
2022/08/10 06:46:29;;;;;;;1.90;1.80;;;24.40;41.10;;;;;;4806602;29;20481;-83
2022/08/10 06:49:00;;;;;;;1.70;1.60;;;24.40;41.20;;;;;;4805340;29;20489;-81
2022/08/10 06:51:30;;;;;;;2.20;2.10;;;24.40;41.10;;;;;;4800134;29;20471;-82
2022/08/10 06:54:00;;;;;;;2.07;1.87;;;24.40;41.20;;;;;;4789279;29;20493;-82
2022/08/10 06:56:28;;;;;;;2.27;2.17;;;24.40;41.10;;;;;;4808357;29;20466;-82
2022/08/10 06:59:02;;;;;;;2.03;1.93;;;24.40;41.10;;;;;;4809225;29;20965;-82
2022/08/10 07:01:31;;;;;;;2.40;2.20;;;24.40;41.20;;;;;;4808996;29;21004;-82
2022/08/10 07:04:11;;;;;;;1.77;1.67;;;24.40;41.10;;;;;;4811732;29;20488;-82
2022/08/10 07:06:42;;;;;;;2.27;2.17;;;24.40;41.20;;;;;;4814085;29;20828;-82
2022/08/10 07:09:11;;;;;;;2.07;1.97;;;24.40;41.20;;;;;;4808165;29;20449;-82
2022/08/10 07:11:38;;;;;;;2.27;2.00;;;24.40;41.20;;;;;;4810005;29;20461;-83
2022/08/10 07:14:05;;;;;;;2.17;2.00;;;24.40;41.20;;;;;;4809397;29;20479;-84
2022/08/10 07:16:33;;;;;;;2.20;2.10;;;24.40;41.30;;;;;;4802578;29;20451;-84
2022/08/10 07:19:00;;;;;;;1.93;1.80;;;24.40;41.30;;;;;;4811569;29;20469;-83
2022/08/10 07:21:27;;;;;;;1.80;1.70;;;24.40;41.30;;;;;;4812321;29;20485;-84
2022/08/10 07:23:54;;;;;;;2.40;2.30;;;24.40;41.30;;;;;;4810649;29;20461;-84
2022/08/10 07:26:21;;;;;;;2.10;2.00;;;24.40;41.30;;;;;;4811020;29;20486;-84
2022/08/10 07:28:49;;;;;;;2.30;2.20;;;24.40;41.30;;;;;;4803251;29;20450;-85
2022/08/10 07:31:19;;;;;;;2.10;2.00;;;24.40;41.30;;;;;;4816550;29;20469;-88
2022/08/10 07:33:48;;;;;;;2.80;1.87;;;24.40;41.30;;;;;;4813025;29;20554;-85
2022/08/10 07:36:14;;;;;;;2.50;2.30;;;24.40;41.30;;;;;;4815129;29;20493;-85
2022/08/10 07:38:41;;;;;;;2.10;2.00;;;24.40;41.30;;;;;;4814336;29;20465;-85
2022/08/10 07:41:09;;;;;;;2.33;2.10;;;24.40;41.30;;;;;;4813538;29;21010;-86
2022/08/10 07:43:38;;;;;;;2.23;2.03;;;24.40;41.60;;;;;;4808382;29;20472;-84
2022/08/10 07:46:11;;;;;;;2.00;1.87;;;24.40;41.30;;;;;;4813190;29;20452;-83
2022/08/10 07:48:44;;;;;;;2.20;2.10;;;24.40;41.30;;;;;;4810243;29;20458;-82
2022/08/10 07:51:11;;;;;;;2.50;2.40;;;24.40;41.40;;;;;;4810529;29;20457;-85
2022/08/10 07:53:44;;;;;;;2.40;2.30;;;24.40;41.50;;;;;;4811703;29;20512;-85
2022/08/10 07:56:11;;;;;;;2.30;2.20;;;24.40;41.50;;;;;;4818552;29;20985;-86
2022/08/10 07:58:52;;;;;;;3.83;2.20;;;24.40;41.40;;;;;;4815410;29;20454;-88
2022/08/10 08:01:21;;;;;;;2.60;2.20;;;24.40;41.50;;;;;;4809848;29;20509;-85
2022/08/10 08:03:47;;;;;;;3.23;2.10;;;24.40;41.50;;;;;;4813295;29;20509;-85
2022/08/10 08:06:14;;;;;;;3.07;2.60;;;24.40;41.60;;;;;;4811165;29;20588;-80
2022/08/10 08:16:26;;;;;;;6.43;2.47;;;24.40;41.50;;;;;;5853024;24;21362;-73
2022/08/10 08:18:55;;;;;;;5.60;3.20;;;24.40;41.60;;;;;;4790434;29;21000;-70
2022/08/10 08:21:37;;;;;;;9.00;2.80;;;24.40;41.70;;;;;;4805977;29;20557;-72
2022/08/10 08:24:05;;;;;;;6.10;2.87;;;24.40;41.70;;;;;;4784530;29;20827;-73
2022/08/10 08:26:31;;;;;;;3.37;2.73;;;24.40;41.80;;;;;;4777494;29;20490;-71
2022/08/10 08:28:58;;;;;;;7.47;2.90;;;24.40;41.80;;;;;;4802514;29;21012;-73
2022/08/10 08:31:25;;;;;;;6.67;3.53;;;24.40;41.90;;;;;;4798749;29;20572;-74
2022/08/10 08:33:53;;;;;;;15.60;3.30;;;24.40;41.90;;;;;;4806895;29;20541;-75
2022/08/10 08:36:19;;;;;;;7.40;3.40;;;24.40;41.90;;;;;;4812640;29;20525;-75
2022/08/10 08:38:59;;;;;;;8.03;2.90;;;24.40;41.90;;;;;;4808873;29;21125;-74
2022/08/10 08:41:59;;;;;;;4.83;3.20;;;24.40;42.00;;;;;;4805522;29;20458;-74
2022/08/10 08:44:39;;;;;;;5.70;3.23;;;24.40;42.00;;;;;;4773178;29;20501;-75
2022/08/10 08:47:10;;;;;;;4.63;3.03;;;24.40;42.10;;;;;;4806666;29;20510;-74
2022/08/10 08:49:55;;;;;;;5.27;3.50;;;24.40;42.20;;;;;;4790561;29;21008;-73
2022/08/10 08:52:46;;;;;;;75.90;16.27;;;24.40;42.10;;;;;;4806618;29;20564;-74
2022/08/10 08:55:27;;;;;;;42.70;11.83;;;24.40;42.20;;;;;;4795991;29;20467;-70
2022/08/10 08:58:11;;;;;;;32.50;10.00;;;24.40;42.20;;;;;;4799560;29;20552;-75
2022/08/10 09:00:46;;;;;;;26.43;9.10;;;24.40;42.30;;;;;;4797492;29;20471;-72
2022/08/10 09:03:31;;;;;;;203.10;36.00;;;24.50;42.50;;;;;;4802865;29;21011;-71
2022/08/10 09:06:23;;;;;;;186.27;39.30;;;24.50;42.60;;;;;;4802191;29;20865;-71
2022/08/10 09:09:19;;;;;;;158.17;31.90;;;24.50;42.60;;;;;;4785511;29;20490;-71
2022/08/10 09:12:42;;;;;;;139.27;30.23;;;24.50;42.70;;;;;;4788274;29;20479;-71
2022/08/10 09:15:16;;;;;;;48.13;15.20;;;24.50;42.80;;;;;;4734630;30;20578;-73
2022/08/10 09:18:02;;;;;;;79.90;20.90;;;24.50;42.90;;;;;;4734139;30;20530;-73
2022/08/10 09:20:28;;;;;;;81.40;24.83;;;24.50;42.90;;;;;;4783359;29;20473;-73
2022/08/10 09:23:08;;;;;;;60.50;20.63;;;24.50;42.90;;;;;;4807776;29;20481;-71
2022/08/10 09:25:36;;;;;;;56.87;17.50;;;24.50;43.00;;;;;;4789702;29;20720;-72
2022/08/10 09:28:05;;;;;;;46.77;15.03;;;24.50;43.10;;;;;;4787493;29;20552;-74
2022/08/10 09:30:42;;;;;;;42.97;14.57;;;24.50;43.20;;;;;;4801187;29;20470;-72
2022/08/10 09:33:18;;;;;;;33.30;11.20;;;24.50;43.20;;;;;;4799198;29;20486;-70
2022/08/10 09:36:03;;;;;;;32.90;12.23;;;24.50;43.20;;;;;;4797386;29;20470;-71
2022/08/10 09:38:50;;;;;;;28.90;11.40;;;24.50;43.20;;;;;;4804125;29;21058;-72
2022/08/10 09:41:48;;;;;;;15.67;8.13;;;24.50;43.20;;;;;;4798887;29;20482;-71
2022/08/10 09:44:26;;;;;;;21.30;9.40;;;24.50;43.20;;;;;;4763354;29;20551;-72
2022/08/10 09:47:18;;;;;;;21.43;9.50;;;24.40;43.10;;;;;;4803213;29;20470;-75
2022/08/10 09:50:14;;;;;;;11.90;7.20;;;24.40;43.10;;;;;;4803572;29;20491;-71
2022/08/10 09:53:01;;;;;;;14.73;7.20;;;24.40;43.10;;;;;;4788583;29;20446;-74
2022/08/10 09:55:34;;;;;;;10.03;7.07;;;24.40;43.10;;;;;;4802080;29;20519;-75
2022/08/10 09:58:24;;;;;;;11.07;7.23;;;24.40;43.10;;;;;;4784867;24;21166;-58
2022/08/10 10:01:26;;;;;;;10.27;6.33;;;24.40;43.10;;;;;;4768001;29;20550;-63
2022/08/10 10:04:08;;;;;;;8.60;6.80;;;24.40;43.10;;;;;;4783066;29;20554;-68
2022/08/10 10:06:52;;;;;;;10.03;5.73;;;24.40;43.10;;;;;;4786540;29;20459;-58
2022/08/10 10:09:44;;;;;;;5.13;4.73;;;24.40;43.10;;;;;;4786123;29;20463;-57
2022/08/10 10:12:31;;;;;;;5.77;4.70;;;24.40;43.10;;;;;;4776159;29;20476;-70
2022/08/10 10:15:22;;;;;;;7.40;4.40;;;24.40;43.10;;;;;;4782794;29;20563;-61
2022/08/10 10:18:06;;;;;;;4.83;4.30;;;24.40;43.10;;;;;;4782896;29;20570;-62
2022/08/10 10:20:53;;;;;;;6.07;4.97;;;24.40;43.10;;;;;;4780204;29;20478;-59
2022/08/10 10:23:41;;;;;;;3.90;3.20;;;24.40;43.10;;;;;;4777643;29;21046;-63
2022/08/10 10:26:18;;;;;;;4.57;3.33;;;24.40;43.10;;;;;;4786069;29;20629;-58
2022/08/10 10:28:58;;;;;;;3.60;3.30;;;24.40;43.10;;;;;;4783010;29;20491;-58
2022/08/10 10:31:53;;;;;;;4.23;2.83;;;24.40;43.10;;;;;;4781705;29;20456;-63
2022/08/10 10:34:49;;;;;;;3.37;3.00;;;24.40;43.10;;;;;;4781084;29;20476;-57
2022/08/10 10:37:18;;;;;;;3.27;3.03;;;24.40;43.10;;;;;;4778902;29;20553;-63
2022/08/10 10:39:54;;;;;;;2.73;2.50;;;24.40;43.10;;;;;;4777408;29;20464;-59
2022/08/10 10:42:47;;;;;;;3.80;2.63;;;24.40;43.10;;;;;;4783151;29;20877;-68
2022/08/10 10:45:28;;;;;;;2.27;2.17;;;24.40;43.10;;;;;;4778660;29;20479;-57
2022/08/10 10:48:12;;;;;;;3.23;2.80;;;24.30;43.00;;;;;;4783298;29;20479;-67
2022/08/10 10:51:01;;;;;;;3.00;2.80;;;24.40;43.50;;;;;;4785703;29;20558;-57
2022/08/10 10:53:53;;;;;;;2.90;2.70;;;24.30;43.00;;;;;;4784411;29;20578;-57
2022/08/10 10:56:23;;;;;;;3.10;2.90;;;24.40;43.10;;;;;;4777473;29;20474;-61
2022/08/10 10:59:07;;;;;;;3.60;3.03;;;24.30;43.00;;;;;;4782190;29;20552;-62
2022/08/10 11:01:57;;;;;;;2.80;2.60;;;24.30;43.00;;;;;;4783803;29;20455;-58
2022/08/10 11:04:26;;;;;;;1.77;1.67;;;24.30;43.00;;;;;;4779086;29;20491;-60
2022/08/10 11:07:13;;;;;;;2.50;2.30;;;24.30;43.00;;;;;;4780985;29;20509;-56
2022/08/10 11:09:45;;;;;;;2.57;2.37;;;24.30;43.00;;;;;;4788310;29;20467;-59
2022/08/10 11:12:18;;;;;;;2.27;2.17;;;24.30;43.00;;;;;;4784996;29;21118;-57
2022/08/10 11:14:51;;;;;;;2.40;2.30;;;24.30;43.00;;;;;;4784373;29;20929;-60
2022/08/10 11:17:22;;;;;;;2.97;2.73;;;24.30;43.00;;;;;;4784865;29;20464;-56
2022/08/10 11:20:09;;;;;;;2.80;2.60;;;24.40;43.10;;;;;;4781378;29;20465;-60
2022/08/10 11:22:40;;;;;;;3.23;3.03;;;24.40;43.10;;;;;;4780367;29;20470;-60
2022/08/10 11:25:24;;;;;;;3.60;3.00;;;24.40;43.10;;;;;;4780873;29;20511;-56
2022/08/10 11:28:07;;;;;;;3.17;2.97;;;24.30;43.00;;;;;;4779290;29;20523;-56
2022/08/10 11:30:44;;;;;;;3.53;3.33;;;24.40;43.10;;;;;;4778538;29;20462;-56
2022/08/10 11:33:27;;;;;;;3.13;2.93;;;24.30;43.00;;;;;;4781356;29;20462;-62
2022/08/10 11:35:59;;;;;;;3.80;3.40;;;24.40;43.10;;;;;;4780158;29;20475;-58
2022/08/10 11:38:51;;;;;;;5.57;4.13;;;24.40;43.10;;;;;;4781102;29;20635;-56
2022/08/10 11:41:37;;;;;;;3.93;3.73;;;24.40;43.10;;;;;;4782262;29;20456;-54
2022/08/10 11:44:10;;;;;;;3.70;3.50;;;24.30;43.00;;;;;;4780964;29;20458;-58
2022/08/10 11:46:43;;;;;;;3.53;3.30;;;24.30;43.00;;;;;;4783803;29;20476;-57
2022/08/10 11:49:12;;;;;;;3.97;3.73;;;24.40;43.10;;;;;;4783707;29;20527;-64
2022/08/10 11:51:46;;;;;;;3.97;3.67;;;24.40;43.10;;;;;;4785018;29;21271;-60
2022/08/10 11:54:34;;;;;;;3.60;3.33;;;24.30;43.00;;;;;;4775182;29;20471;-56
2022/08/10 11:56:59;;;;;;;3.90;3.70;;;24.30;43.80;;;;;;4779699;29;20501;-67
2022/08/10 12:02:18;;;;;;;3.67;3.47;;;24.30;43.00;;;;;;4780517;29;20272;-57
2022/08/10 12:04:56;;;;;;;3.33;3.13;;;24.40;43.10;;;;;;4783691;29;20491;-57
2022/08/10 12:07:25;;;;;;;3.47;3.27;;;24.30;43.00;;;;;;4782598;29;20563;-57
2022/08/10 12:09:53;;;;;;;4.03;3.73;;;24.40;43.10;;;;;;4787315;29;20526;-69
2022/08/10 12:12:20;;;;;;;4.17;3.97;;;24.30;43.80;;;;;;4783025;29;20487;-60
2022/08/10 12:15:00;;;;;;;4.63;4.33;;;24.40;43.10;;;;;;4783621;29;20506;-61
2022/08/10 12:17:54;;;;;;;3.83;3.53;;;24.40;43.10;;;;;;4781808;29;20501;-59
2022/08/10 12:20:36;;;;;;;4.53;4.30;;;24.40;43.10;;;;;;4777323;29;20478;-56
2022/08/10 12:23:15;;;;;;;3.77;3.53;;;24.40;43.10;;;;;;4767947;29;20463;-61
2022/08/10 12:26:11;;;;;;;4.23;4.03;;;24.40;43.10;;;;;;4780581;29;20487;-61
2022/08/10 12:28:48;;;;;;;4.17;3.87;;;24.40;43.10;;;;;;4778295;29;20481;-57
2022/08/10 12:31:15;;;;;;;4.17;3.97;;;24.40;43.10;;;;;;4783376;29;20525;-60
2022/08/10 12:34:06;;;;;;;4.10;3.80;;;24.40;43.10;;;;;;4783552;29;21009;-56
2022/08/10 12:36:39;;;;;;;4.27;3.97;;;24.40;43.10;;;;;;4775288;29;20570;-57
2022/08/10 12:39:23;;;;;;;4.37;4.03;;;24.40;43.10;;;;;;4785188;29;21074;-58
2022/08/10 12:42:01;;;;;;;4.20;4.00;;;24.40;43.10;;;;;;4779637;29;20471;-56
2022/08/10 12:44:43;;;;;;;3.90;3.70;;;24.40;43.10;;;;;;4784238;29;20967;-56
2022/08/10 12:47:28;;;;;;;3.80;3.60;;;24.40;43.10;;;;;;4787594;29;20480;-58
2022/08/10 12:53:47;;;;;;;4.30;4.10;;;24.40;43.10;;;;;;4764621;29;20465;-56
2022/08/10 12:56:24;;;;;;;4.53;4.33;;;24.40;43.10;;;;;;4778222;29;20911;-59
2022/08/10 12:58:50;;;;;;;4.57;4.33;;;24.40;43.10;;;;;;4779368;29;21206;-56
2022/08/10 13:01:17;;;;;;;4.50;4.30;;;24.40;43.10;;;;;;4773600;29;21845;-56
2022/08/10 13:03:49;;;;;;;4.63;4.33;;;24.40;43.10;;;;;;4778131;29;20369;-57
2022/08/10 13:06:16;;;;;;;4.83;4.53;;;24.40;43.10;;;;;;4777446;29;20483;-58
2022/08/10 13:11:30;;;;;;;4.60;4.30;;;24.40;43.10;;;;;;4782601;29;20543;-56
2022/08/10 13:14:05;;;;;;;5.00;4.70;;;24.40;43.10;;;;;;4782237;29;20459;-58
2022/08/10 13:16:32;;;;;;;5.17;4.87;;;24.40;43.10;;;;;;4777020;29;20488;-59
2022/08/10 13:19:00;;;;;;;5.33;5.03;;;24.40;43.10;;;;;;4781811;29;20983;-64
2022/08/10 13:21:40;;;;;;;5.10;4.90;;;24.40;43.10;;;;;;4781697;29;20496;-62
2022/08/10 13:24:14;;;;;;;5.30;5.00;;;24.40;43.10;;;;;;4728970;29;20473;-58
2022/08/10 13:26:52;;;;;;;5.60;5.10;;;24.40;43.10;;;;;;4784965;29;20485;-67
2022/08/10 13:29:20;;;;;;;5.10;4.83;;;24.40;43.10;;;;;;4782730;29;20456;-69
2022/08/10 13:31:51;;;;;;;5.13;4.90;;;24.40;43.10;;;;;;4791871;29;20538;-66
2022/08/10 13:34:26;;;;;;;5.40;5.10;;;24.40;43.10;;;;;;4776504;29;20467;-72
2022/08/10 13:36:58;;;;;;;5.07;4.83;;;24.40;43.10;;;;;;4791300;29;20547;-62